sensor_id;sensor_type;location;lat;lon;timestamp;P1;durP1;ratioP1;P2;durP2;ratioP2
56736;SDS011;42618;51.226;4.910;2023-05-07T00:01:29;9.27;;;6.90;;
56736;SDS011;42618;51.226;4.910;2023-05-07T00:03:56;8.93;;;6.40;;
56736;SDS011;42618;51.226;4.910;2023-05-07T00:06:23;9.07;;;6.82;;
56736;SDS011;42618;51.226;4.910;2023-05-07T00:08:50;9.13;;;6.70;;
56736;SDS011;42618;51.226;4.910;2023-05-07T00:11:17;7.18;;;6.10;;
56736;SDS011;42618;51.226;4.910;2023-05-07T00:13:43;8.90;;;6.88;;
56736;SDS011;42618;51.226;4.910;2023-05-07T00:16:10;6.63;;;6.03;;
56736;SDS011;42618;51.226;4.910;2023-05-07T00:18:37;10.77;;;6.43;;
56736;SDS011;42618;51.226;4.910;2023-05-07T00:21:04;7.97;;;6.57;;
56736;SDS011;42618;51.226;4.910;2023-05-07T00:23:30;9.10;;;7.07;;
56736;SDS011;42618;51.226;4.910;2023-05-07T00:25:57;7.75;;;6.28;;
56736;SDS011;42618;51.226;4.910;2023-05-07T00:28:24;7.95;;;6.43;;
56736;SDS011;42618;51.226;4.910;2023-05-07T00:30:50;9.30;;;6.30;;
56736;SDS011;42618;51.226;4.910;2023-05-07T00:33:17;12.77;;;7.50;;
56736;SDS011;42618;51.226;4.910;2023-05-07T00:35:44;7.22;;;6.22;;
56736;SDS011;42618;51.226;4.910;2023-05-07T00:38:11;12.10;;;6.78;;
56736;SDS011;42618;51.226;4.910;2023-05-07T00:40:37;8.77;;;6.75;;
56736;SDS011;42618;51.226;4.910;2023-05-07T00:43:04;11.68;;;7.18;;
56736;SDS011;42618;51.226;4.910;2023-05-07T00:45:31;10.55;;;7.20;;
56736;SDS011;42618;51.226;4.910;2023-05-07T00:47:59;10.85;;;6.63;;
56736;SDS011;42618;51.226;4.910;2023-05-07T00:50:27;8.38;;;7.10;;
56736;SDS011;42618;51.226;4.910;2023-05-07T00:52:56;7.97;;;6.95;;
56736;SDS011;42618;51.226;4.910;2023-05-07T00:55:23;11.48;;;7.13;;
56736;SDS011;42618;51.226;4.910;2023-05-07T00:57:50;8.90;;;7.10;;
56736;SDS011;42618;51.226;4.910;2023-05-07T01:00:18;10.50;;;7.10;;
56736;SDS011;42618;51.226;4.910;2023-05-07T01:02:46;12.18;;;7.07;;
56736;SDS011;42618;51.226;4.910;2023-05-07T01:05:14;10.88;;;6.97;;
56736;SDS011;42618;51.226;4.910;2023-05-07T01:07:44;10.73;;;7.10;;
56736;SDS011;42618;51.226;4.910;2023-05-07T01:10:12;8.18;;;7.35;;
56736;SDS011;42618;51.226;4.910;2023-05-07T01:12:40;8.32;;;6.50;;
56736;SDS011;42618;51.226;4.910;2023-05-07T01:15:07;8.60;;;6.18;;
56736;SDS011;42618;51.226;4.910;2023-05-07T01:17:36;10.48;;;6.93;;
56736;SDS011;42618;51.226;4.910;2023-05-07T01:20:07;9.32;;;6.90;;
56736;SDS011;42618;51.226;4.910;2023-05-07T01:22:35;10.07;;;7.22;;
56736;SDS011;42618;51.226;4.910;2023-05-07T01:25:05;8.77;;;7.07;;
56736;SDS011;42618;51.226;4.910;2023-05-07T01:27:35;9.93;;;6.85;;
56736;SDS011;42618;51.226;4.910;2023-05-07T01:30:04;10.52;;;7.22;;
56736;SDS011;42618;51.226;4.910;2023-05-07T01:32:42;8.90;;;7.47;;
56736;SDS011;42618;51.226;4.910;2023-05-07T01:35:15;10.82;;;7.45;;
56736;SDS011;42618;51.226;4.910;2023-05-07T01:37:46;9.40;;;7.25;;
56736;SDS011;42618;51.226;4.910;2023-05-07T01:40:14;12.85;;;7.25;;
56736;SDS011;42618;51.226;4.910;2023-05-07T01:42:41;10.82;;;7.07;;
56736;SDS011;42618;51.226;4.910;2023-05-07T01:45:10;9.75;;;7.38;;
56736;SDS011;42618;51.226;4.910;2023-05-07T01:47:37;10.13;;;6.90;;
56736;SDS011;42618;51.226;4.910;2023-05-07T01:50:07;9.18;;;7.05;;
56736;SDS011;42618;51.226;4.910;2023-05-07T01:52:38;8.60;;;7.05;;
56736;SDS011;42618;51.226;4.910;2023-05-07T01:55:06;8.98;;;6.65;;
56736;SDS011;42618;51.226;4.910;2023-05-07T01:57:33;10.15;;;7.00;;
56736;SDS011;42618;51.226;4.910;2023-05-07T02:00:00;10.35;;;6.70;;
56736;SDS011;42618;51.226;4.910;2023-05-07T02:02:28;10.82;;;6.82;;
56736;SDS011;42618;51.226;4.910;2023-05-07T02:04:57;10.23;;;6.95;;
56736;SDS011;42618;51.226;4.910;2023-05-07T02:07:24;10.57;;;6.90;;
56736;SDS011;42618;51.226;4.910;2023-05-07T02:09:51;12.25;;;6.57;;
56736;SDS011;42618;51.226;4.910;2023-05-07T02:12:18;10.37;;;7.17;;
56736;SDS011;42618;51.226;4.910;2023-05-07T02:14:45;10.57;;;7.35;;
56736;SDS011;42618;51.226;4.910;2023-05-07T02:17:12;9.02;;;6.45;;
56736;SDS011;42618;51.226;4.910;2023-05-07T02:19:39;10.32;;;7.38;;
56736;SDS011;42618;51.226;4.910;2023-05-07T02:22:06;9.75;;;6.72;;
56736;SDS011;42618;51.226;4.910;2023-05-07T02:24:33;10.23;;;6.75;;
56736;SDS011;42618;51.226;4.910;2023-05-07T02:27:00;7.88;;;6.90;;
56736;SDS011;42618;51.226;4.910;2023-05-07T02:29:27;8.33;;;6.63;;
56736;SDS011;42618;51.226;4.910;2023-05-07T02:31:54;9.00;;;6.75;;
56736;SDS011;42618;51.226;4.910;2023-05-07T02:34:21;11.10;;;6.55;;
56736;SDS011;42618;51.226;4.910;2023-05-07T02:36:48;7.68;;;6.72;;
56736;SDS011;42618;51.226;4.910;2023-05-07T02:39:18;9.43;;;6.47;;
56736;SDS011;42618;51.226;4.910;2023-05-07T02:41:45;10.40;;;6.28;;
56736;SDS011;42618;51.226;4.910;2023-05-07T02:44:12;8.27;;;6.38;;
56736;SDS011;42618;51.226;4.910;2023-05-07T02:46:38;8.13;;;6.15;;
56736;SDS011;42618;51.226;4.910;2023-05-07T02:49:09;9.20;;;6.05;;
56736;SDS011;42618;51.226;4.910;2023-05-07T02:51:35;11.00;;;6.40;;
56736;SDS011;42618;51.226;4.910;2023-05-07T02:54:07;9.38;;;6.05;;
56736;SDS011;42618;51.226;4.910;2023-05-07T02:56:34;11.77;;;5.93;;
56736;SDS011;42618;51.226;4.910;2023-05-07T02:59:00;9.40;;;6.60;;
56736;SDS011;42618;51.226;4.910;2023-05-07T03:01:32;10.88;;;6.30;;
56736;SDS011;42618;51.226;4.910;2023-05-07T03:04:04;9.88;;;5.53;;
56736;SDS011;42618;51.226;4.910;2023-05-07T03:06:31;8.77;;;5.97;;
56736;SDS011;42618;51.226;4.910;2023-05-07T03:08:58;8.50;;;5.85;;
56736;SDS011;42618;51.226;4.910;2023-05-07T03:11:24;7.07;;;6.15;;
56736;SDS011;42618;51.226;4.910;2023-05-07T03:13:52;7.65;;;6.15;;
56736;SDS011;42618;51.226;4.910;2023-05-07T03:16:20;8.30;;;5.85;;
56736;SDS011;42618;51.226;4.910;2023-05-07T03:18:47;11.83;;;6.30;;
56736;SDS011;42618;51.226;4.910;2023-05-07T03:21:14;10.60;;;5.80;;
56736;SDS011;42618;51.226;4.910;2023-05-07T03:23:41;7.23;;;5.70;;
56736;SDS011;42618;51.226;4.910;2023-05-07T03:26:07;13.50;;;6.55;;
56736;SDS011;42618;51.226;4.910;2023-05-07T03:28:34;9.23;;;6.35;;
56736;SDS011;42618;51.226;4.910;2023-05-07T03:31:04;8.43;;;6.30;;
56736;SDS011;42618;51.226;4.910;2023-05-07T03:33:37;10.15;;;6.43;;
56736;SDS011;42618;51.226;4.910;2023-05-07T03:36:16;9.07;;;6.40;;
56736;SDS011;42618;51.226;4.910;2023-05-07T03:38:42;6.72;;;5.45;;
56736;SDS011;42618;51.226;4.910;2023-05-07T03:41:10;8.98;;;5.65;;
56736;SDS011;42618;51.226;4.910;2023-05-07T03:43:36;6.80;;;5.53;;
56736;SDS011;42618;51.226;4.910;2023-05-07T03:46:07;7.93;;;5.75;;
56736;SDS011;42618;51.226;4.910;2023-05-07T03:48:34;9.48;;;6.47;;
56736;SDS011;42618;51.226;4.910;2023-05-07T03:51:01;9.50;;;5.70;;
56736;SDS011;42618;51.226;4.910;2023-05-07T03:53:31;7.65;;;5.85;;
56736;SDS011;42618;51.226;4.910;2023-05-07T03:55:58;10.48;;;6.07;;
56736;SDS011;42618;51.226;4.910;2023-05-07T03:58:24;9.35;;;6.28;;
56736;SDS011;42618;51.226;4.910;2023-05-07T04:00:54;11.70;;;6.82;;
56736;SDS011;42618;51.226;4.910;2023-05-07T04:03:25;8.27;;;5.95;;
56736;SDS011;42618;51.226;4.910;2023-05-07T04:05:54;12.05;;;6.60;;
56736;SDS011;42618;51.226;4.910;2023-05-07T04:08:21;10.45;;;6.50;;
56736;SDS011;42618;51.226;4.910;2023-05-07T04:10:55;10.15;;;5.55;;
56736;SDS011;42618;51.226;4.910;2023-05-07T04:13:25;10.73;;;5.93;;
56736;SDS011;42618;51.226;4.910;2023-05-07T04:15:52;9.68;;;6.10;;
56736;SDS011;42618;51.226;4.910;2023-05-07T04:18:21;8.75;;;5.70;;
56736;SDS011;42618;51.226;4.910;2023-05-07T04:20:48;10.45;;;5.82;;
56736;SDS011;42618;51.226;4.910;2023-05-07T04:23:18;11.27;;;6.35;;
56736;SDS011;42618;51.226;4.910;2023-05-07T04:25:45;8.10;;;6.23;;
56736;SDS011;42618;51.226;4.910;2023-05-07T04:28:23;7.40;;;5.45;;
56736;SDS011;42618;51.226;4.910;2023-05-07T04:30:50;12.05;;;6.65;;
56736;SDS011;42618;51.226;4.910;2023-05-07T04:33:18;8.35;;;6.15;;
56736;SDS011;42618;51.226;4.910;2023-05-07T04:35:46;8.35;;;6.13;;
56736;SDS011;42618;51.226;4.910;2023-05-07T04:38:14;10.32;;;6.60;;
56736;SDS011;42618;51.226;4.910;2023-05-07T04:40:41;9.70;;;6.88;;
56736;SDS011;42618;51.226;4.910;2023-05-07T04:43:11;10.77;;;7.35;;
56736;SDS011;42618;51.226;4.910;2023-05-07T04:45:44;8.60;;;6.43;;
56736;SDS011;42618;51.226;4.910;2023-05-07T04:48:11;7.82;;;6.47;;
56736;SDS011;42618;51.226;4.910;2023-05-07T04:50:39;8.57;;;6.43;;
56736;SDS011;42618;51.226;4.910;2023-05-07T04:53:07;8.30;;;6.80;;
56736;SDS011;42618;51.226;4.910;2023-05-07T04:55:33;9.65;;;7.57;;
56736;SDS011;42618;51.226;4.910;2023-05-07T04:58:01;9.55;;;6.57;;
56736;SDS011;42618;51.226;4.910;2023-05-07T05:00:31;8.55;;;6.60;;
56736;SDS011;42618;51.226;4.910;2023-05-07T05:05:26;9.27;;;6.53;;
56736;SDS011;42618;51.226;4.910;2023-05-07T05:07:53;9.50;;;6.70;;
56736;SDS011;42618;51.226;4.910;2023-05-07T05:10:21;12.55;;;6.43;;
56736;SDS011;42618;51.226;4.910;2023-05-07T05:12:50;9.15;;;6.50;;
56736;SDS011;42618;51.226;4.910;2023-05-07T05:15:18;9.70;;;6.22;;
56736;SDS011;42618;51.226;4.910;2023-05-07T05:17:45;8.63;;;6.20;;
56736;SDS011;42618;51.226;4.910;2023-05-07T05:20:12;9.18;;;6.63;;
56736;SDS011;42618;51.226;4.910;2023-05-07T05:22:40;24.85;;;16.25;;
56736;SDS011;42618;51.226;4.910;2023-05-07T05:25:09;12.25;;;8.63;;
56736;SDS011;42618;51.226;4.910;2023-05-07T05:27:36;22.97;;;14.83;;
56736;SDS011;42618;51.226;4.910;2023-05-07T05:32:33;7.45;;;5.95;;
56736;SDS011;42618;51.226;4.910;2023-05-07T05:35:00;10.33;;;6.43;;
56736;SDS011;42618;51.226;4.910;2023-05-07T05:39:58;7.93;;;6.10;;
56736;SDS011;42618;51.226;4.910;2023-05-07T05:42:27;10.10;;;6.47;;
56736;SDS011;42618;51.226;4.910;2023-05-07T05:44:54;8.43;;;6.22;;
56736;SDS011;42618;51.226;4.910;2023-05-07T05:47:21;10.52;;;5.82;;
56736;SDS011;42618;51.226;4.910;2023-05-07T05:49:50;8.30;;;6.57;;
56736;SDS011;42618;51.226;4.910;2023-05-07T05:52:17;10.15;;;6.60;;
56736;SDS011;42618;51.226;4.910;2023-05-07T05:54:45;14.77;;;9.77;;
56736;SDS011;42618;51.226;4.910;2023-05-07T05:57:12;16.40;;;11.82;;
56736;SDS011;42618;51.226;4.910;2023-05-07T05:59:39;31.70;;;18.83;;
56736;SDS011;42618;51.226;4.910;2023-05-07T06:02:06;11.25;;;7.53;;
56736;SDS011;42618;51.226;4.910;2023-05-07T06:04:33;11.40;;;6.57;;
56736;SDS011;42618;51.226;4.910;2023-05-07T06:07:00;11.18;;;6.40;;
56736;SDS011;42618;51.226;4.910;2023-05-07T06:09:26;9.77;;;6.65;;
56736;SDS011;42618;51.226;4.910;2023-05-07T06:11:53;8.43;;;6.40;;
56736;SDS011;42618;51.226;4.910;2023-05-07T06:14:21;11.48;;;6.72;;
56736;SDS011;42618;51.226;4.910;2023-05-07T06:16:48;10.00;;;6.93;;
56736;SDS011;42618;51.226;4.910;2023-05-07T06:19:15;11.60;;;6.70;;
56736;SDS011;42618;51.226;4.910;2023-05-07T06:21:44;10.88;;;6.20;;
56736;SDS011;42618;51.226;4.910;2023-05-07T06:24:11;8.52;;;6.82;;
56736;SDS011;42618;51.226;4.910;2023-05-07T06:26:38;8.88;;;6.50;;
56736;SDS011;42618;51.226;4.910;2023-05-07T06:29:05;10.73;;;7.13;;
56736;SDS011;42618;51.226;4.910;2023-05-07T06:31:32;12.38;;;7.03;;
56736;SDS011;42618;51.226;4.910;2023-05-07T06:34:06;9.50;;;7.20;;
56736;SDS011;42618;51.226;4.910;2023-05-07T06:36:36;12.57;;;7.32;;
56736;SDS011;42618;51.226;4.910;2023-05-07T06:39:26;11.38;;;7.60;;
56736;SDS011;42618;51.226;4.910;2023-05-07T06:41:53;9.43;;;6.80;;
56736;SDS011;42618;51.226;4.910;2023-05-07T06:44:25;11.40;;;7.18;;
56736;SDS011;42618;51.226;4.910;2023-05-07T06:47:07;11.90;;;7.28;;
56736;SDS011;42618;51.226;4.910;2023-05-07T06:49:34;16.48;;;7.70;;
56736;SDS011;42618;51.226;4.910;2023-05-07T06:52:01;18.00;;;12.68;;
56736;SDS011;42618;51.226;4.910;2023-05-07T06:54:28;44.42;;;25.20;;
56736;SDS011;42618;51.226;4.910;2023-05-07T06:56:55;26.75;;;17.92;;
56736;SDS011;42618;51.226;4.910;2023-05-07T06:59:24;14.32;;;9.15;;
56736;SDS011;42618;51.226;4.910;2023-05-07T07:01:52;21.17;;;12.23;;
56736;SDS011;42618;51.226;4.910;2023-05-07T07:04:19;14.70;;;7.85;;
56736;SDS011;42618;51.226;4.910;2023-05-07T07:06:56;11.98;;;8.15;;
56736;SDS011;42618;51.226;4.910;2023-05-07T07:09:23;10.00;;;8.00;;
56736;SDS011;42618;51.226;4.910;2023-05-07T07:11:51;15.38;;;7.63;;
56736;SDS011;42618;51.226;4.910;2023-05-07T07:14:18;14.57;;;7.75;;
56736;SDS011;42618;51.226;4.910;2023-05-07T07:16:49;12.93;;;7.95;;
56736;SDS011;42618;51.226;4.910;2023-05-07T07:19:17;13.10;;;7.55;;
56736;SDS011;42618;51.226;4.910;2023-05-07T07:21:46;11.27;;;7.60;;
56736;SDS011;42618;51.226;4.910;2023-05-07T07:24:13;9.52;;;7.32;;
56736;SDS011;42618;51.226;4.910;2023-05-07T07:26:46;10.15;;;7.50;;
56736;SDS011;42618;51.226;4.910;2023-05-07T07:29:13;12.85;;;7.88;;
56736;SDS011;42618;51.226;4.910;2023-05-07T07:31:42;12.82;;;7.90;;
56736;SDS011;42618;51.226;4.910;2023-05-07T07:34:09;14.25;;;8.02;;
56736;SDS011;42618;51.226;4.910;2023-05-07T07:36:36;17.65;;;8.27;;
56736;SDS011;42618;51.226;4.910;2023-05-07T07:39:14;11.63;;;8.13;;
56736;SDS011;42618;51.226;4.910;2023-05-07T07:41:42;11.13;;;8.07;;
56736;SDS011;42618;51.226;4.910;2023-05-07T07:44:10;14.77;;;9.27;;
56736;SDS011;42618;51.226;4.910;2023-05-07T07:46:44;11.15;;;7.72;;
56736;SDS011;42618;51.226;4.910;2023-05-07T07:49:12;11.98;;;8.48;;
56736;SDS011;42618;51.226;4.910;2023-05-07T07:51:38;12.25;;;8.35;;
56736;SDS011;42618;51.226;4.910;2023-05-07T07:54:05;13.20;;;8.32;;
56736;SDS011;42618;51.226;4.910;2023-05-07T07:56:34;13.70;;;7.95;;
56736;SDS011;42618;51.226;4.910;2023-05-07T07:59:02;12.57;;;8.30;;
56736;SDS011;42618;51.226;4.910;2023-05-07T08:01:30;11.90;;;7.63;;
56736;SDS011;42618;51.226;4.910;2023-05-07T08:06:27;13.35;;;8.40;;
56736;SDS011;42618;51.226;4.910;2023-05-07T08:08:54;14.50;;;7.97;;
56736;SDS011;42618;51.226;4.910;2023-05-07T08:11:22;12.18;;;8.32;;
56736;SDS011;42618;51.226;4.910;2023-05-07T08:13:49;12.23;;;8.43;;
56736;SDS011;42618;51.226;4.910;2023-05-07T08:16:17;13.57;;;8.48;;
56736;SDS011;42618;51.226;4.910;2023-05-07T08:18:44;11.77;;;8.17;;
56736;SDS011;42618;51.226;4.910;2023-05-07T08:21:11;9.75;;;7.50;;
56736;SDS011;42618;51.226;4.910;2023-05-07T08:23:38;14.30;;;7.95;;
56736;SDS011;42618;51.226;4.910;2023-05-07T08:26:07;10.45;;;7.50;;
56736;SDS011;42618;51.226;4.910;2023-05-07T08:28:35;10.15;;;7.68;;
56736;SDS011;42618;51.226;4.910;2023-05-07T08:31:02;10.45;;;7.60;;
56736;SDS011;42618;51.226;4.910;2023-05-07T08:33:33;12.50;;;8.75;;
56736;SDS011;42618;51.226;4.910;2023-05-07T08:36:00;14.20;;;8.43;;
56736;SDS011;42618;51.226;4.910;2023-05-07T08:38:27;11.38;;;7.93;;
56736;SDS011;42618;51.226;4.910;2023-05-07T08:40:54;11.50;;;7.87;;
56736;SDS011;42618;51.226;4.910;2023-05-07T08:43:21;9.17;;;8.17;;
56736;SDS011;42618;51.226;4.910;2023-05-07T08:45:56;10.20;;;7.43;;
56736;SDS011;42618;51.226;4.910;2023-05-07T08:48:31;10.98;;;7.40;;
56736;SDS011;42618;51.226;4.910;2023-05-07T08:51:05;9.65;;;7.35;;
56736;SDS011;42618;51.226;4.910;2023-05-07T08:53:33;9.68;;;7.15;;
56736;SDS011;42618;51.226;4.910;2023-05-07T08:56:01;9.65;;;7.20;;
56736;SDS011;42618;51.226;4.910;2023-05-07T08:58:29;12.25;;;7.47;;
56736;SDS011;42618;51.226;4.910;2023-05-07T09:00:56;11.00;;;7.80;;
56736;SDS011;42618;51.226;4.910;2023-05-07T09:03:23;11.02;;;7.20;;
56736;SDS011;42618;51.226;4.910;2023-05-07T09:05:53;15.88;;;7.97;;
56736;SDS011;42618;51.226;4.910;2023-05-07T09:08:24;11.82;;;7.30;;
56736;SDS011;42618;51.226;4.910;2023-05-07T09:10:53;16.60;;;9.02;;
56736;SDS011;42618;51.226;4.910;2023-05-07T09:13:22;12.88;;;8.25;;
56736;SDS011;42618;51.226;4.910;2023-05-07T09:15:49;10.35;;;7.80;;
56736;SDS011;42618;51.226;4.910;2023-05-07T09:18:16;9.93;;;7.72;;
56736;SDS011;42618;51.226;4.910;2023-05-07T09:20:45;11.93;;;7.55;;
56736;SDS011;42618;51.226;4.910;2023-05-07T09:23:12;11.32;;;8.15;;
56736;SDS011;42618;51.226;4.910;2023-05-07T09:25:42;13.00;;;8.80;;
56736;SDS011;42618;51.226;4.910;2023-05-07T09:28:15;11.38;;;7.78;;
56736;SDS011;42618;51.226;4.910;2023-05-07T09:30:43;11.32;;;7.18;;
56736;SDS011;42618;51.226;4.910;2023-05-07T09:33:11;13.02;;;7.60;;
56736;SDS011;42618;51.226;4.910;2023-05-07T09:35:42;13.75;;;9.13;;
56736;SDS011;42618;51.226;4.910;2023-05-07T09:38:14;12.13;;;8.40;;
56736;SDS011;42618;51.226;4.910;2023-05-07T09:40:44;12.48;;;8.52;;
56736;SDS011;42618;51.226;4.910;2023-05-07T09:43:13;11.60;;;8.48;;
56736;SDS011;42618;51.226;4.910;2023-05-07T09:45:55;12.68;;;8.35;;
56736;SDS011;42618;51.226;4.910;2023-05-07T09:48:24;12.73;;;8.70;;
56736;SDS011;42618;51.226;4.910;2023-05-07T09:50:55;13.32;;;9.60;;
56736;SDS011;42618;51.226;4.910;2023-05-07T09:53:28;12.50;;;8.57;;
56736;SDS011;42618;51.226;4.910;2023-05-07T09:55:58;15.90;;;9.40;;
56736;SDS011;42618;51.226;4.910;2023-05-07T09:58:26;17.10;;;10.52;;
56736;SDS011;42618;51.226;4.910;2023-05-07T10:00:54;14.98;;;11.10;;
56736;SDS011;42618;51.226;4.910;2023-05-07T10:05:54;15.13;;;11.20;;
56736;SDS011;42618;51.226;4.910;2023-05-07T10:08:22;30.55;;;14.80;;
56736;SDS011;42618;51.226;4.910;2023-05-07T10:10:52;25.52;;;15.43;;
56736;SDS011;42618;51.226;4.910;2023-05-07T10:13:22;23.48;;;14.63;;
56736;SDS011;42618;51.226;4.910;2023-05-07T10:15:53;18.02;;;13.93;;
56736;SDS011;42618;51.226;4.910;2023-05-07T10:18:23;21.35;;;13.57;;
56736;SDS011;42618;51.226;4.910;2023-05-07T10:21:04;16.75;;;12.75;;
56736;SDS011;42618;51.226;4.910;2023-05-07T10:23:36;20.35;;;14.63;;
56736;SDS011;42618;51.226;4.910;2023-05-07T10:26:05;21.00;;;15.20;;
56736;SDS011;42618;51.226;4.910;2023-05-07T10:28:37;20.08;;;15.05;;
56736;SDS011;42618;51.226;4.910;2023-05-07T10:34:09;19.38;;;14.35;;
56736;SDS011;42618;51.226;4.910;2023-05-07T10:36:39;20.33;;;14.52;;
56736;SDS011;42618;51.226;4.910;2023-05-07T10:39:07;20.38;;;15.70;;
56736;SDS011;42618;51.226;4.910;2023-05-07T10:41:36;20.30;;;14.23;;
56736;SDS011;42618;51.226;4.910;2023-05-07T10:44:03;20.70;;;16.05;;
56736;SDS011;42618;51.226;4.910;2023-05-07T10:46:32;25.00;;;16.50;;
56736;SDS011;42618;51.226;4.910;2023-05-07T10:49:22;21.77;;;15.55;;
56736;SDS011;42618;51.226;4.910;2023-05-07T10:52:16;22.95;;;16.08;;
56736;SDS011;42618;51.226;4.910;2023-05-07T10:57:43;23.10;;;15.35;;
56736;SDS011;42618;51.226;4.910;2023-05-07T11:03:08;23.40;;;16.60;;
56736;SDS011;42618;51.226;4.910;2023-05-07T11:05:43;18.83;;;14.38;;
56736;SDS011;42618;51.226;4.910;2023-05-07T11:08:19;20.40;;;14.45;;
56736;SDS011;42618;51.226;4.910;2023-05-07T11:11:02;21.77;;;14.30;;
56736;SDS011;42618;51.226;4.910;2023-05-07T11:16:21;24.77;;;16.40;;
56736;SDS011;42618;51.226;4.910;2023-05-07T11:18:57;24.20;;;16.60;;
56736;SDS011;42618;51.226;4.910;2023-05-07T11:24:06;25.60;;;17.10;;
56736;SDS011;42618;51.226;4.910;2023-05-07T11:26:42;23.67;;;16.95;;
56736;SDS011;42618;51.226;4.910;2023-05-07T11:29:15;21.90;;;16.70;;
56736;SDS011;42618;51.226;4.910;2023-05-07T11:31:49;23.65;;;17.27;;
56736;SDS011;42618;51.226;4.910;2023-05-07T11:34:25;23.83;;;16.75;;
56736;SDS011;42618;51.226;4.910;2023-05-07T11:36:55;24.88;;;17.80;;
56736;SDS011;42618;51.226;4.910;2023-05-07T11:39:34;28.55;;;17.08;;
56736;SDS011;42618;51.226;4.910;2023-05-07T11:42:02;22.40;;;16.70;;
56736;SDS011;42618;51.226;4.910;2023-05-07T11:44:42;24.63;;;17.83;;
56736;SDS011;42618;51.226;4.910;2023-05-07T11:47:21;25.10;;;16.85;;
56736;SDS011;42618;51.226;4.910;2023-05-07T11:49:48;20.13;;;16.42;;
56736;SDS011;42618;51.226;4.910;2023-05-07T11:52:17;29.77;;;15.95;;
56736;SDS011;42618;51.226;4.910;2023-05-07T11:54:54;22.42;;;15.35;;
56736;SDS011;42618;51.226;4.910;2023-05-07T11:59:55;18.20;;;12.80;;
56736;SDS011;42618;51.226;4.910;2023-05-07T12:02:24;16.95;;;10.77;;
56736;SDS011;42618;51.226;4.910;2023-05-07T12:07:18;20.17;;;13.75;;
56736;SDS011;42618;51.226;4.910;2023-05-07T12:09:45;16.45;;;9.60;;
56736;SDS011;42618;51.226;4.910;2023-05-07T12:12:13;19.55;;;12.68;;
56736;SDS011;42618;51.226;4.910;2023-05-07T12:14:42;19.67;;;12.38;;
56736;SDS011;42618;51.226;4.910;2023-05-07T12:17:11;16.23;;;12.15;;
56736;SDS011;42618;51.226;4.910;2023-05-07T12:19:40;21.70;;;12.85;;
56736;SDS011;42618;51.226;4.910;2023-05-07T12:22:09;16.88;;;10.95;;
56736;SDS011;42618;51.226;4.910;2023-05-07T12:24:45;14.47;;;9.37;;
56736;SDS011;42618;51.226;4.910;2023-05-07T12:27:14;13.20;;;7.82;;
56736;SDS011;42618;51.226;4.910;2023-05-07T12:29:48;8.35;;;4.53;;
56736;SDS011;42618;51.226;4.910;2023-05-07T12:32:16;13.68;;;5.65;;
56736;SDS011;42618;51.226;4.910;2023-05-07T12:34:44;10.55;;;5.28;;
56736;SDS011;42618;51.226;4.910;2023-05-07T12:37:12;10.25;;;4.90;;
56736;SDS011;42618;51.226;4.910;2023-05-07T12:39:48;9.10;;;4.80;;
56736;SDS011;42618;51.226;4.910;2023-05-07T12:42:16;6.90;;;4.13;;
56736;SDS011;42618;51.226;4.910;2023-05-07T12:44:46;6.95;;;4.40;;
56736;SDS011;42618;51.226;4.910;2023-05-07T12:47:13;6.47;;;3.73;;
56736;SDS011;42618;51.226;4.910;2023-05-07T12:49:41;6.60;;;3.63;;
56736;SDS011;42618;51.226;4.910;2023-05-07T12:52:08;7.97;;;4.00;;
56736;SDS011;42618;51.226;4.910;2023-05-07T12:54:37;7.53;;;3.97;;
56736;SDS011;42618;51.226;4.910;2023-05-07T12:57:05;10.57;;;4.43;;
56736;SDS011;42618;51.226;4.910;2023-05-07T12:59:37;6.40;;;3.42;;
56736;SDS011;42618;51.226;4.910;2023-05-07T13:02:06;11.82;;;4.07;;
56736;SDS011;42618;51.226;4.910;2023-05-07T13:04:35;8.10;;;4.88;;
56736;SDS011;42618;51.226;4.910;2023-05-07T13:07:02;8.35;;;4.55;;
56736;SDS011;42618;51.226;4.910;2023-05-07T13:09:29;9.83;;;4.77;;
56736;SDS011;42618;51.226;4.910;2023-05-07T13:11:57;11.93;;;5.05;;
56736;SDS011;42618;51.226;4.910;2023-05-07T13:14:27;8.23;;;4.78;;
56736;SDS011;42618;51.226;4.910;2023-05-07T13:16:54;11.13;;;5.10;;
56736;SDS011;42618;51.226;4.910;2023-05-07T13:19:21;10.25;;;4.90;;
56736;SDS011;42618;51.226;4.910;2023-05-07T13:21:47;8.00;;;4.32;;
56736;SDS011;42618;51.226;4.910;2023-05-07T13:24:16;7.53;;;4.13;;
56736;SDS011;42618;51.226;4.910;2023-05-07T13:26:42;6.93;;;3.88;;
56736;SDS011;42618;51.226;4.910;2023-05-07T13:29:11;5.50;;;3.10;;
56736;SDS011;42618;51.226;4.910;2023-05-07T13:31:38;9.80;;;2.80;;
56736;SDS011;42618;51.226;4.910;2023-05-07T13:34:09;9.02;;;2.83;;
56736;SDS011;42618;51.226;4.910;2023-05-07T13:36:36;9.07;;;4.03;;
56736;SDS011;42618;51.226;4.910;2023-05-07T13:39:06;8.60;;;4.45;;
56736;SDS011;42618;51.226;4.910;2023-05-07T13:41:33;8.55;;;4.97;;
56736;SDS011;42618;51.226;4.910;2023-05-07T13:43:59;10.52;;;4.60;;
56736;SDS011;42618;51.226;4.910;2023-05-07T13:46:26;8.48;;;5.18;;
56736;SDS011;42618;51.226;4.910;2023-05-07T13:48:53;9.85;;;5.15;;
56736;SDS011;42618;51.226;4.910;2023-05-07T13:51:20;9.35;;;5.45;;
56736;SDS011;42618;51.226;4.910;2023-05-07T13:53:47;12.63;;;5.53;;
56736;SDS011;42618;51.226;4.910;2023-05-07T13:56:14;10.15;;;5.95;;
56736;SDS011;42618;51.226;4.910;2023-05-07T13:58:41;5.67;;;3.90;;
56736;SDS011;42618;51.226;4.910;2023-05-07T14:01:25;11.07;;;3.63;;
56736;SDS011;42618;51.226;4.910;2023-05-07T14:03:51;10.38;;;3.88;;
56736;SDS011;42618;51.226;4.910;2023-05-07T14:06:18;5.27;;;3.23;;
56736;SDS011;42618;51.226;4.910;2023-05-07T14:08:46;6.85;;;3.70;;
56736;SDS011;42618;51.226;4.910;2023-05-07T14:11:12;7.93;;;3.88;;
56736;SDS011;42618;51.226;4.910;2023-05-07T14:13:39;8.18;;;4.55;;
56736;SDS011;42618;51.226;4.910;2023-05-07T14:16:06;9.23;;;4.72;;
56736;SDS011;42618;51.226;4.910;2023-05-07T14:18:33;10.25;;;4.65;;
56736;SDS011;42618;51.226;4.910;2023-05-07T14:21:00;9.05;;;5.25;;
56736;SDS011;42618;51.226;4.910;2023-05-07T14:23:27;8.60;;;4.65;;
56736;SDS011;42618;51.226;4.910;2023-05-07T14:25:54;7.15;;;3.80;;
56736;SDS011;42618;51.226;4.910;2023-05-07T14:28:20;6.87;;;3.80;;
56736;SDS011;42618;51.226;4.910;2023-05-07T14:30:47;5.82;;;2.22;;
56736;SDS011;42618;51.226;4.910;2023-05-07T14:33:14;3.35;;;1.50;;
56736;SDS011;42618;51.226;4.910;2023-05-07T14:35:41;4.32;;;1.88;;
56736;SDS011;42618;51.226;4.910;2023-05-07T14:38:11;4.47;;;2.03;;
56736;SDS011;42618;51.226;4.910;2023-05-07T14:40:38;8.18;;;2.22;;
56736;SDS011;42618;51.226;4.910;2023-05-07T14:43:04;5.13;;;2.63;;
56736;SDS011;42618;51.226;4.910;2023-05-07T14:45:31;4.72;;;2.30;;
56736;SDS011;42618;51.226;4.910;2023-05-07T14:47:58;9.35;;;2.70;;
56736;SDS011;42618;51.226;4.910;2023-05-07T14:50:24;4.53;;;2.30;;
56736;SDS011;42618;51.226;4.910;2023-05-07T14:52:51;5.20;;;2.22;;
56736;SDS011;42618;51.226;4.910;2023-05-07T14:55:18;6.35;;;2.20;;
56736;SDS011;42618;51.226;4.910;2023-05-07T14:57:45;8.18;;;2.53;;
56736;SDS011;42618;51.226;4.910;2023-05-07T15:00:11;6.93;;;2.78;;
56736;SDS011;42618;51.226;4.910;2023-05-07T15:02:39;5.93;;;3.13;;
56736;SDS011;42618;51.226;4.910;2023-05-07T15:05:06;5.40;;;3.05;;
56736;SDS011;42618;51.226;4.910;2023-05-07T15:07:32;5.45;;;3.20;;
56736;SDS011;42618;51.226;4.910;2023-05-07T15:10:00;10.40;;;3.60;;
56736;SDS011;42618;51.226;4.910;2023-05-07T15:12:27;6.00;;;2.38;;
56736;SDS011;42618;51.226;4.910;2023-05-07T15:14:54;5.45;;;2.10;;
56736;SDS011;42618;51.226;4.910;2023-05-07T15:17:20;5.20;;;2.65;;
56736;SDS011;42618;51.226;4.910;2023-05-07T15:19:47;7.18;;;2.67;;